Time;durP1;ratioP1;P1;durP2;ratioP2;P2;SDS_P1;SDS_P2;PMS_P1;PMS_P2;Temp;Humidity;BMP_temperature;BMP_pressure;BME280_temperature;BME280_humidity;BME280_pressure;Samples;Min_cycle;Max_cycle;Signal;HPM_P1;HPM_P2
2022/12/15 00:38:43;;;;;;;34.23;19.70;;;;;;;;;;5018430;28;20472;-76
2022/12/15 00:41:10;;;;;;;31.37;19.13;;;;;;;;;;5002178;28;20450;-76
2022/12/15 00:43:36;;;;;;;31.83;18.90;;;;;;;;;;5002413;28;20469;-76
2022/12/15 00:48:48;;;;;;;32.67;20.60;;;;;;;;;;5004155;28;20190;-76
2022/12/15 00:51:14;;;;;;;33.63;20.60;;;;;;;;;;5000433;28;20580;-76
2022/12/15 01:21:13;;;;;;;33.70;20.63;;;;;;;;;;4994593;28;20204;-76
2022/12/15 01:23:41;;;;;;;34.83;21.33;;;;;;;;;;4975911;28;20269;-76
2022/12/15 01:26:07;;;;;;;31.00;19.60;;;;;;;;;;5004983;28;20954;-76
2022/12/15 01:28:34;;;;;;;35.37;21.17;;;;;;;;;;5002259;28;20442;-76
2022/12/15 01:31:00;;;;;;;34.47;20.23;;;;;;;;;;5008617;28;20609;-76
2022/12/15 01:33:26;;;;;;;34.40;21.23;;;;;;;;;;5005166;28;20206;-76
2022/12/15 01:35:59;;;;;;;32.03;18.50;;;;;;;;;;5000659;28;20430;-76
2022/12/15 01:38:26;;;;;;;35.50;21.53;;;;;;;;;;5003156;28;20464;-76
2022/12/15 01:40:58;;;;;;;33.03;22.13;;;;;;;;;;5009562;28;20213;-76
2022/12/15 01:43:26;;;;;;;33.20;21.07;;;;;;;;;;5000875;28;20638;-76
2022/12/15 01:45:52;;;;;;;34.33;20.60;;;;;;;;;;5002438;28;20493;-76
2022/12/15 01:48:26;;;;;;;30.63;20.10;;;;;;;;;;5007127;28;20232;-76
2022/12/15 01:50:55;;;;;;;35.13;22.30;;;;;;;;;;5021403;28;20574;-76
2022/12/15 01:53:21;;;;;;;31.73;20.50;;;;;;;;;;5011155;28;20829;-76
2022/12/15 01:55:47;;;;;;;33.40;20.80;;;;;;;;;;5006754;28;20665;-76
2022/12/15 01:58:15;;;;;;;41.13;24.07;;;;;;;;;;4999759;28;20187;-76
2022/12/15 02:00:42;;;;;;;39.17;22.17;;;;;;;;;;5000953;28;20291;-76
2022/12/15 02:03:09;;;;;;;36.10;22.17;;;;;;;;;;4997530;28;20801;-76
2022/12/15 02:05:35;;;;;;;36.90;22.03;;;;;;;;;;5002511;28;20525;-76
2022/12/15 02:08:02;;;;;;;40.00;21.73;;;;;;;;;;4995219;28;20442;-76
2022/12/15 02:10:33;;;;;;;42.83;22.43;;;;;;;;;;5008228;28;20489;-76
2022/12/15 02:13:04;;;;;;;38.97;21.83;;;;;;;;;;5005650;28;20453;-76
2022/12/15 02:15:35;;;;;;;38.43;21.30;;;;;;;;;;5002607;28;20433;-76
2022/12/15 02:18:11;;;;;;;37.47;22.00;;;;;;;;;;5003456;28;20491;-76
2022/12/15 02:20:43;;;;;;;34.30;20.63;;;;;;;;;;5006064;28;20733;-76
2022/12/15 02:23:27;;;;;;;36.97;21.07;;;;;;;;;;5003015;28;20945;-76
2022/12/15 02:26:12;;;;;;;33.27;21.73;;;;;;;;;;5001217;28;20438;-76
2022/12/15 02:28:57;;;;;;;33.93;21.63;;;;;;;;;;5006360;28;20914;-76
2022/12/15 02:34:28;;;;;;;33.97;20.70;;;;;;;;;;4999991;28;20475;-76
2022/12/15 02:36:57;;;;;;;31.60;18.83;;;;;;;;;;5010933;28;20665;-76
2022/12/15 02:39:24;;;;;;;35.27;20.73;;;;;;;;;;5004871;28;20492;-76
2022/12/15 02:41:51;;;;;;;36.90;21.23;;;;;;;;;;5005770;28;20438;-76
2022/12/15 02:44:30;;;;;;;38.43;22.23;;;;;;;;;;5012423;28;20552;-76
2022/12/15 02:47:05;;;;;;;35.17;21.43;;;;;;;;;;5000660;28;20576;-76
2022/12/15 02:49:50;;;;;;;34.27;20.07;;;;;;;;;;5003261;28;20456;-76
2022/12/15 02:52:19;;;;;;;36.30;22.97;;;;;;;;;;5006108;28;20445;-76
2022/12/15 02:54:50;;;;;;;37.87;22.73;;;;;;;;;;5002222;28;20469;-76
2022/12/15 02:57:16;;;;;;;38.77;22.73;;;;;;;;;;5013557;28;20975;-76
2022/12/15 02:59:54;;;;;;;36.77;21.63;;;;;;;;;;4998423;28;20498;-76
2022/12/15 03:02:22;;;;;;;33.17;20.63;;;;;;;;;;5007368;28;21029;-76
2022/12/15 03:04:48;;;;;;;35.60;20.97;;;;;;;;;;5011791;28;21154;-76
2022/12/15 03:07:15;;;;;;;31.63;20.27;;;;;;;;;;5006595;28;20203;-76
2022/12/15 03:09:41;;;;;;;32.90;20.30;;;;;;;;;;5005306;28;20460;-75
2022/12/15 03:12:09;;;;;;;34.40;21.60;;;;;;;;;;5006003;28;20470;-76
2022/12/15 03:14:35;;;;;;;34.50;21.60;;;;;;;;;;5006985;28;20214;-76
2022/12/15 03:17:03;;;;;;;34.60;20.37;;;;;;;;;;5013254;28;20537;-76
2022/12/15 03:19:29;;;;;;;33.03;20.33;;;;;;;;;;5005752;28;21251;-76
2022/12/15 03:21:56;;;;;;;33.33;20.40;;;;;;;;;;5005580;28;20501;-76
2022/12/15 03:24:22;;;;;;;38.17;21.80;;;;;;;;;;5009528;28;20916;-77
2022/12/15 03:26:48;;;;;;;32.43;20.30;;;;;;;;;;5011063;28;20429;-76
2022/12/15 03:29:16;;;;;;;34.33;21.30;;;;;;;;;;5003923;28;20484;-76
2022/12/15 03:31:43;;;;;;;37.20;21.17;;;;;;;;;;5010601;28;20436;-76
2022/12/15 03:34:09;;;;;;;30.37;18.53;;;;;;;;;;5005930;28;20496;-76
2022/12/15 03:36:35;;;;;;;35.67;19.77;;;;;;;;;;5017568;28;20437;-76
2022/12/15 03:39:02;;;;;;;30.60;19.03;;;;;;;;;;5005758;28;20508;-76
2022/12/15 03:41:29;;;;;;;38.63;22.10;;;;;;;;;;5008307;28;20457;-76
2022/12/15 03:43:55;;;;;;;35.07;20.47;;;;;;;;;;5010188;28;20438;-76
2022/12/15 03:46:21;;;;;;;35.13;20.93;;;;;;;;;;5011840;28;20441;-76
2022/12/15 03:48:48;;;;;;;37.73;21.30;;;;;;;;;;4998635;28;20439;-76
2022/12/15 03:51:14;;;;;;;38.13;21.57;;;;;;;;;;5006118;28;20458;-76
2022/12/15 03:53:40;;;;;;;37.87;21.90;;;;;;;;;;5011512;28;20457;-76
2022/12/15 03:56:06;;;;;;;36.83;20.50;;;;;;;;;;5001715;28;20462;-76
2022/12/15 03:58:32;;;;;;;36.23;22.00;;;;;;;;;;5004444;28;20423;-76
2022/12/15 04:00:59;;;;;;;37.30;22.57;;;;;;;;;;5016946;28;20493;-75
2022/12/15 04:03:25;;;;;;;36.37;21.80;;;;;;;;;;4997679;28;20839;-76
2022/12/15 04:05:51;;;;;;;31.90;19.67;;;;;;;;;;5013509;28;20526;-76
2022/12/15 04:08:17;;;;;;;31.70;19.00;;;;;;;;;;5008460;28;20499;-76
2022/12/15 04:10:43;;;;;;;33.53;19.57;;;;;;;;;;5005903;28;20458;-76
2022/12/15 04:13:10;;;;;;;31.90;21.52;;;;;;;;;;4997081;28;21068;-76
2022/12/15 04:15:37;;;;;;;33.57;19.83;;;;;;;;;;5010255;28;20601;-76
2022/12/15 04:18:04;;;;;;;33.57;20.30;;;;;;;;;;5013034;28;20456;-76
2022/12/15 04:20:31;;;;;;;34.20;20.93;;;;;;;;;;5004589;28;20499;-76
2022/12/15 04:22:58;;;;;;;36.10;20.50;;;;;;;;;;5002633;28;20474;-76
2022/12/15 05:31:57;;;;;;;31.98;22.02;;;;;;;;;;5006776;28;20429;-74
2022/12/15 05:34:27;;;;;;;33.63;21.10;;;;;;;;;;4996729;28;20234;-74
2022/12/15 05:36:54;;;;;;;30.47;18.43;;;;;;;;;;5011420;28;20445;-74
2022/12/15 05:39:21;;;;;;;32.80;19.90;;;;;;;;;;5005707;28;20461;-74
2022/12/15 05:41:47;;;;;;;28.57;17.93;;;;;;;;;;5000564;28;20966;-74
2022/12/15 05:44:14;;;;;;;30.47;18.83;;;;;;;;;;5000037;28;20438;-74
2022/12/15 05:46:40;;;;;;;30.07;18.17;;;;;;;;;;5003430;28;20458;-73
2022/12/15 05:49:07;;;;;;;32.97;19.33;;;;;;;;;;5004092;28;20445;-74
2022/12/15 05:51:36;;;;;;;30.40;18.83;;;;;;;;;;5007732;28;21263;-74
2022/12/15 05:54:02;;;;;;;28.87;18.07;;;;;;;;;;5004310;28;20457;-74
2022/12/15 05:56:29;;;;;;;35.70;20.33;;;;;;;;;;5002660;28;20510;-74
2022/12/15 05:58:58;;;;;;;34.27;19.33;;;;;;;;;;5004748;28;20445;-74
2022/12/15 06:01:26;;;;;;;33.53;19.47;;;;;;;;;;4998871;28;20670;-74
2022/12/15 06:03:53;;;;;;;30.53;18.07;;;;;;;;;;4996475;28;20462;-74
2022/12/15 06:06:19;;;;;;;32.03;19.53;;;;;;;;;;4999264;28;20433;-74
2022/12/15 06:08:46;;;;;;;34.83;23.15;;;;;;;;;;4996107;28;20501;-74
2022/12/15 06:11:13;;;;;;;37.03;22.60;;;;;;;;;;5000042;28;20213;-74
2022/12/15 06:13:39;;;;;;;35.60;20.80;;;;;;;;;;4999726;28;21083;-74
2022/12/15 06:16:07;;;;;;;36.27;19.93;;;;;;;;;;5005971;28;20516;-74
2022/12/15 06:18:35;;;;;;;31.00;19.57;;;;;;;;;;4999314;28;20443;-74
2022/12/15 06:21:06;;;;;;;42.67;25.13;;;;;;;;;;5020857;28;20464;-74
2022/12/15 06:23:33;;;;;;;34.80;21.87;;;;;;;;;;5006044;28;20469;-74
2022/12/15 06:25:59;;;;;;;35.70;21.10;;;;;;;;;;5006294;28;20439;-74
2022/12/15 06:28:26;;;;;;;33.23;19.97;;;;;;;;;;5002421;28;20917;-74
2022/12/15 06:30:53;;;;;;;34.85;21.85;;;;;;;;;;5006311;28;20427;-74
2022/12/15 06:33:20;;;;;;;35.93;19.40;;;;;;;;;;5002873;28;20185;-74
2022/12/15 06:35:46;;;;;;;34.40;20.67;;;;;;;;;;4994347;28;20505;-75
2022/12/15 06:38:12;;;;;;;31.33;19.37;;;;;;;;;;4996882;28;20488;-77
2022/12/15 06:40:39;;;;;;;35.43;20.43;;;;;;;;;;4996745;28;20455;-75
2022/12/15 06:43:08;;;;;;;33.65;21.50;;;;;;;;;;4998135;28;20464;-75
2022/12/15 06:45:35;;;;;;;30.93;18.07;;;;;;;;;;5000453;28;20188;-76
2022/12/15 06:48:01;;;;;;;31.55;20.63;;;;;;;;;;4996896;28;20432;-73
2022/12/15 06:50:27;;;;;;;32.22;21.65;;;;;;;;;;4995345;28;20429;-78
2022/12/15 06:52:53;;;;;;;35.83;21.80;;;;;;;;;;4994988;28;20183;-77
2022/12/15 06:55:19;;;;;;;33.93;20.50;;;;;;;;;;4994123;28;20466;-77
2022/12/15 06:57:49;;;;;;;33.25;22.58;;;;;;;;;;5000116;28;20464;-76
2022/12/15 07:00:15;;;;;;;40.13;22.10;;;;;;;;;;5003889;28;20207;-76
2022/12/15 07:02:42;;;;;;;34.87;21.77;;;;;;;;;;5008739;28;20889;-76
2022/12/15 07:05:08;;;;;;;33.08;23.45;;;;;;;;;;4999108;28;20436;-76
2022/12/15 07:07:34;;;;;;;32.63;20.73;;;;;;;;;;5002918;28;20204;-75
2022/12/15 07:10:00;;;;;;;32.03;19.13;;;;;;;;;;4995992;28;20462;-75
2022/12/15 07:12:26;;;;;;;31.93;18.93;;;;;;;;;;5001647;28;20433;-75
2022/12/15 07:14:53;;;;;;;31.03;17.77;;;;;;;;;;5000532;28;20504;-75
2022/12/15 07:17:19;;;;;;;29.93;18.60;;;;;;;;;;5010677;28;20436;-75
2022/12/15 07:19:45;;;;;;;32.37;19.50;;;;;;;;;;5001599;28;20438;-75
2022/12/15 07:22:11;;;;;;;34.67;19.60;;;;;;;;;;5002656;28;20417;-75
2022/12/15 07:24:37;;;;;;;29.07;18.70;;;;;;;;;;4998626;28;20457;-75
2022/12/15 07:27:03;;;;;;;31.33;18.40;;;;;;;;;;5007613;28;20440;-75
2022/12/15 07:29:29;;;;;;;32.87;18.93;;;;;;;;;;5007161;28;20960;-75
2022/12/15 07:31:56;;;;;;;35.40;20.30;;;;;;;;;;5000130;28;20479;-75
2022/12/15 07:34:22;;;;;;;35.17;19.97;;;;;;;;;;5017093;28;20885;-75
2022/12/15 07:36:49;;;;;;;35.63;20.47;;;;;;;;;;5011354;28;20434;-75
2022/12/15 07:39:15;;;;;;;43.40;25.27;;;;;;;;;;5005633;28;20449;-75
2022/12/15 07:41:41;;;;;;;40.67;23.70;;;;;;;;;;5007885;28;20430;-74
2022/12/15 07:44:07;;;;;;;36.47;21.20;;;;;;;;;;5010154;28;20489;-75
2022/12/15 07:46:34;;;;;;;40.83;21.97;;;;;;;;;;4995539;28;20926;-76
2022/12/15 07:49:00;;;;;;;31.27;19.30;;;;;;;;;;5003015;28;20541;-76
2022/12/15 07:51:26;;;;;;;37.43;19.67;;;;;;;;;;5008831;28;20449;-76
2022/12/15 07:53:52;;;;;;;32.63;19.67;;;;;;;;;;5006142;28;20506;-76
2022/12/15 07:56:19;;;;;;;34.07;20.57;;;;;;;;;;5010535;28;20438;-76
2022/12/15 07:58:45;;;;;;;32.27;19.73;;;;;;;;;;5014061;28;20457;-76
2022/12/15 08:01:12;;;;;;;35.87;19.37;;;;;;;;;;5001118;28;20457;-76
2022/12/15 08:03:39;;;;;;;38.77;22.37;;;;;;;;;;5005901;28;20441;-75
2022/12/15 08:06:10;;;;;;;39.20;22.73;;;;;;;;;;4999419;28;20442;-76
2022/12/15 08:08:36;;;;;;;42.00;22.43;;;;;;;;;;5004219;28;20469;-76
2022/12/15 08:11:09;;;;;;;33.73;20.33;;;;;;;;;;5001361;28;20538;-75
2022/12/15 08:13:37;;;;;;;36.73;21.03;;;;;;;;;;5006585;28;20832;-76
2022/12/15 08:16:03;;;;;;;46.17;24.03;;;;;;;;;;5003613;28;20430;-76
2022/12/15 08:18:29;;;;;;;36.77;21.77;;;;;;;;;;5002584;28;20453;-76
2022/12/15 08:20:55;;;;;;;38.40;23.13;;;;;;;;;;5006177;28;20452;-75
2022/12/15 08:23:21;;;;;;;46.87;23.83;;;;;;;;;;5014105;28;20990;-76
2022/12/15 08:25:48;;;;;;;41.87;23.83;;;;;;;;;;5005164;28;20442;-76
2022/12/15 08:28:14;;;;;;;41.93;23.20;;;;;;;;;;5006303;28;20422;-76
2022/12/15 08:30:40;;;;;;;39.00;22.73;;;;;;;;;;5001682;28;20864;-76
2022/12/15 08:33:06;;;;;;;38.37;21.90;;;;;;;;;;5003905;28;20919;-76
2022/12/15 08:35:33;;;;;;;40.97;22.70;;;;;;;;;;5000814;28;20470;-76
2022/12/15 08:38:00;;;;;;;39.67;22.80;;;;;;;;;;4997262;28;21316;-76
2022/12/15 08:40:26;;;;;;;38.57;22.10;;;;;;;;;;5004218;28;20591;-74
2022/12/15 08:42:53;;;;;;;41.87;23.40;;;;;;;;;;4994310;28;20434;-76
2022/12/15 08:45:19;;;;;;;40.40;22.87;;;;;;;;;;5004488;28;20434;-76
2022/12/15 08:47:45;;;;;;;36.33;20.90;;;;;;;;;;5000437;28;20433;-76
2022/12/15 08:50:11;;;;;;;34.00;20.20;;;;;;;;;;5000805;28;20474;-76
2022/12/15 08:52:40;;;;;;;36.33;21.77;;;;;;;;;;5002044;28;20797;-76
2022/12/15 08:55:07;;;;;;;35.90;20.57;;;;;;;;;;4996351;28;20993;-75
2022/12/15 08:57:35;;;;;;;38.00;21.47;;;;;;;;;;5000502;28;20439;-75
2022/12/15 09:00:01;;;;;;;41.73;21.90;;;;;;;;;;4984764;28;20455;-76
2022/12/15 09:02:27;;;;;;;42.80;23.80;;;;;;;;;;5010679;28;20486;-76
2022/12/15 09:04:53;;;;;;;42.77;23.17;;;;;;;;;;5003546;28;20442;-76
2022/12/15 09:07:20;;;;;;;43.23;23.87;;;;;;;;;;5003508;28;20422;-76
2022/12/15 09:09:46;;;;;;;40.83;23.83;;;;;;;;;;5006236;28;20454;-76
2022/12/15 09:12:12;;;;;;;41.07;23.70;;;;;;;;;;5003445;28;20442;-75
2022/12/15 09:14:39;;;;;;;39.63;23.80;;;;;;;;;;4995500;28;20469;-74
2022/12/15 09:17:05;;;;;;;41.13;23.97;;;;;;;;;;5007147;28;20483;-74
2022/12/15 09:19:31;;;;;;;44.27;24.07;;;;;;;;;;5007188;28;20491;-74
2022/12/15 09:21:58;;;;;;;40.57;23.77;;;;;;;;;;5011886;28;20716;-75
2022/12/15 09:24:24;;;;;;;41.10;23.73;;;;;;;;;;5020442;28;20437;-75
2022/12/15 09:26:50;;;;;;;38.90;22.90;;;;;;;;;;5014906;28;20453;-76
2022/12/15 09:29:17;;;;;;;38.63;22.13;;;;;;;;;;5008726;28;20434;-74
2022/12/15 09:31:45;;;;;;;39.97;22.70;;;;;;;;;;5000707;28;20517;-76
2022/12/15 09:34:13;;;;;;;40.13;24.03;;;;;;;;;;5008596;28;20462;-76
2022/12/15 09:36:40;;;;;;;42.17;24.13;;;;;;;;;;5008790;28;20444;-76
2022/12/15 09:39:07;;;;;;;40.37;23.97;;;;;;;;;;4998839;28;20496;-75
2022/12/15 09:41:34;;;;;;;37.57;21.83;;;;;;;;;;5004958;28;20534;-76
2022/12/15 09:44:10;;;;;;;45.97;25.00;;;;;;;;;;5009465;28;20437;-75
2022/12/15 09:47:00;;;;;;;42.63;23.93;;;;;;;;;;5000606;28;20447;-75
2022/12/15 09:49:29;;;;;;;36.27;22.03;;;;;;;;;;5019005;28;20429;-75
2022/12/15 09:52:00;;;;;;;37.33;23.13;;;;;;;;;;4999826;28;20458;-76
2022/12/15 09:54:30;;;;;;;41.67;23.33;;;;;;;;;;5009493;28;20469;-76
2022/12/15 09:56:57;;;;;;;36.40;21.43;;;;;;;;;;5015077;28;20430;-75
2022/12/15 09:59:46;;;;;;;40.93;23.77;;;;;;;;;;5008699;28;20438;-76
2022/12/15 10:02:22;;;;;;;42.10;24.10;;;;;;;;;;5006737;28;20434;-75
2022/12/15 10:05:11;;;;;;;40.83;23.73;;;;;;;;;;4999794;28;20454;-76
2022/12/15 10:07:45;;;;;;;40.30;23.60;;;;;;;;;;4981713;28;20460;-76
2022/12/15 10:10:11;;;;;;;37.80;22.77;;;;;;;;;;5008519;28;20457;-75
2022/12/15 10:12:39;;;;;;;38.07;22.27;;;;;;;;;;5007192;28;20433;-75
2022/12/15 10:15:19;;;;;;;34.17;20.87;;;;;;;;;;5010010;28;20839;-76
2022/12/15 10:17:47;;;;;;;37.73;23.67;;;;;;;;;;5002956;28;20445;-76
2022/12/15 10:20:13;;;;;;;40.47;23.53;;;;;;;;;;5006703;28;20454;-75
2022/12/15 10:22:40;;;;;;;37.23;23.23;;;;;;;;;;5007634;28;20856;-75
2022/12/15 10:25:21;;;;;;;43.93;25.00;;;;;;;;;;5003128;28;20441;-76
2022/12/15 10:27:47;;;;;;;42.93;25.23;;;;;;;;;;5002918;28;20431;-75
2022/12/15 10:30:13;;;;;;;44.87;24.37;;;;;;;;;;5001459;28;20496;-75
2022/12/15 10:32:51;;;;;;;47.43;24.77;;;;;;;;;;5003118;28;22501;-75
2022/12/15 10:35:26;;;;;;;41.37;24.73;;;;;;;;;;5011157;28;20473;-74
2022/12/15 10:37:57;;;;;;;38.57;22.90;;;;;;;;;;5007455;28;20456;-75
2022/12/15 10:40:43;;;;;;;44.67;25.60;;;;;;;;;;5005046;28;21014;-75
2022/12/15 10:43:34;;;;;;;44.90;24.20;;;;;;;;;;4998564;28;20427;-75
2022/12/15 10:46:20;;;;;;;40.00;23.77;;;;;;;;;;4997885;28;20438;-76
2022/12/15 10:48:56;;;;;;;39.77;24.20;;;;;;;;;;4999174;28;20438;-75
2022/12/15 10:51:33;;;;;;;39.70;23.87;;;;;;;;;;5005459;28;20456;-75
2022/12/15 10:54:05;;;;;;;40.73;23.80;;;;;;;;;;4997062;28;20675;-75
2022/12/15 10:56:32;;;;;;;42.73;23.77;;;;;;;;;;5008140;28;20441;-75
2022/12/15 10:58:59;;;;;;;38.90;23.90;;;;;;;;;;4997706;28;20469;-75
2022/12/15 11:01:26;;;;;;;42.87;24.10;;;;;;;;;;5011389;28;20809;-77
2022/12/15 11:03:53;;;;;;;39.80;24.23;;;;;;;;;;5002308;28;20439;-74
2022/12/15 11:06:25;;;;;;;38.87;24.03;;;;;;;;;;5012928;28;20449;-75
2022/12/15 11:08:53;;;;;;;38.37;23.03;;;;;;;;;;5010304;28;20558;-74
2022/12/15 11:14:17;;;;;;;37.80;23.97;;;;;;;;;;5015265;28;20472;-75
2022/12/15 11:16:49;;;;;;;38.03;23.50;;;;;;;;;;5008695;28;20435;-74
2022/12/15 11:19:21;;;;;;;37.17;22.97;;;;;;;;;;5004155;28;20461;-75
2022/12/15 11:21:51;;;;;;;40.27;23.80;;;;;;;;;;5003612;28;20434;-75
2022/12/15 11:24:20;;;;;;;37.60;22.73;;;;;;;;;;5011422;28;20440;-74
2022/12/15 11:26:46;;;;;;;41.07;23.03;;;;;;;;;;5011222;28;20453;-75
2022/12/15 11:29:12;;;;;;;38.97;22.90;;;;;;;;;;5006077;28;20843;-75
2022/12/15 11:31:41;;;;;;;35.93;23.40;;;;;;;;;;5017073;28;20425;-75
2022/12/15 11:34:18;;;;;;;37.47;23.50;;;;;;;;;;5015666;28;20473;-75
2022/12/15 11:37:05;;;;;;;37.27;22.83;;;;;;;;;;5011031;28;20505;-75
2022/12/15 11:39:41;;;;;;;37.20;21.90;;;;;;;;;;5011321;28;20436;-76
2022/12/15 11:42:18;;;;;;;42.03;25.53;;;;;;;;;;5008390;28;21122;-76
2022/12/15 11:44:47;;;;;;;43.43;25.77;;;;;;;;;;5005325;28;21141;-76
2022/12/15 11:47:13;;;;;;;41.70;25.50;;;;;;;;;;5013827;28;20455;-77
2022/12/15 11:49:42;;;;;;;40.73;24.53;;;;;;;;;;5011213;28;20202;-75
2022/12/15 11:52:12;;;;;;;38.27;23.77;;;;;;;;;;5007363;28;20443;-75
2022/12/15 11:54:55;;;;;;;40.73;23.77;;;;;;;;;;4994093;28;20466;-76
2022/12/15 11:57:26;;;;;;;45.73;26.13;;;;;;;;;;5002510;28;20512;-75
2022/12/15 12:00:05;;;;;;;43.17;25.17;;;;;;;;;;4995657;28;20511;-74
2022/12/15 12:02:41;;;;;;;45.47;25.90;;;;;;;;;;5008535;28;21139;-73
2022/12/15 12:05:26;;;;;;;47.00;26.77;;;;;;;;;;5012594;28;20441;-77
2022/12/15 12:07:56;;;;;;;47.50;27.47;;;;;;;;;;5005360;28;22236;-75
2022/12/15 12:10:30;;;;;;;52.33;27.67;;;;;;;;;;5004489;28;20206;-73
2022/12/15 12:13:04;;;;;;;46.07;26.17;;;;;;;;;;5021054;28;20516;-74
2022/12/15 12:15:35;;;;;;;45.97;26.27;;;;;;;;;;5004071;28;20702;-79
2022/12/15 12:18:07;;;;;;;47.10;26.97;;;;;;;;;;5016321;28;20430;-76
2022/12/15 12:20:39;;;;;;;47.37;27.43;;;;;;;;;;5003751;28;20468;-76
2022/12/15 12:23:09;;;;;;;47.47;27.57;;;;;;;;;;5012916;28;20985;-76
2022/12/15 12:26:08;;;;;;;45.27;27.53;;;;;;;;;;4990289;28;20427;-76
2022/12/15 12:28:40;;;;;;;46.33;26.73;;;;;;;;;;4963465;28;20194;-76
2022/12/15 12:31:15;;;;;;;48.13;26.37;;;;;;;;;;4999368;28;20211;-76
2022/12/15 12:33:45;;;;;;;50.47;28.17;;;;;;;;;;5003201;28;21147;-76
2022/12/15 12:36:12;;;;;;;44.70;27.50;;;;;;;;;;5011908;28;20588;-76
2022/12/15 12:38:45;;;;;;;45.93;27.23;;;;;;;;;;5008073;28;20236;-76
2022/12/15 12:41:26;;;;;;;44.30;26.63;;;;;;;;;;5007955;28;20258;-76
2022/12/15 12:43:54;;;;;;;49.33;27.20;;;;;;;;;;5009279;28;20191;-76
2022/12/15 12:46:40;;;;;;;45.03;26.63;;;;;;;;;;5004599;28;20188;-73
2022/12/15 12:49:16;;;;;;;51.10;29.00;;;;;;;;;;4999060;28;20180;-73
2022/12/15 12:51:49;;;;;;;46.30;25.87;;;;;;;;;;4997415;28;20604;-73
2022/12/15 12:54:42;;;;;;;49.57;25.93;;;;;;;;;;5001237;28;20286;-76
2022/12/15 12:57:11;;;;;;;43.73;25.93;;;;;;;;;;4995230;28;20581;-76
2022/12/15 12:59:40;;;;;;;44.77;25.43;;;;;;;;;;5005787;28;20819;-76
2022/12/15 13:02:24;;;;;;;46.27;26.70;;;;;;;;;;5006633;28;20234;-76
2022/12/15 13:05:00;;;;;;;48.70;26.30;;;;;;;;;;5015131;28;20714;-76
2022/12/15 13:07:33;;;;;;;45.47;26.60;;;;;;;;;;5002302;28;20426;-83
2022/12/15 13:10:08;;;;;;;43.57;25.13;;;;;;;;;;4985307;28;20208;-77
2022/12/15 13:12:47;;;;;;;44.70;26.20;;;;;;;;;;5004671;28;20191;-76
2022/12/15 13:15:18;;;;;;;42.67;25.87;;;;;;;;;;5012481;28;20203;-79
2022/12/15 13:17:48;;;;;;;45.03;26.60;;;;;;;;;;5011228;28;20739;-75
2022/12/15 13:20:25;;;;;;;44.37;26.33;;;;;;;;;;5000425;28;20454;-75
2022/12/15 13:22:52;;;;;;;41.80;25.07;;;;;;;;;;5006347;28;20499;-75
2022/12/15 13:25:26;;;;;;;47.03;27.43;;;;;;;;;;5010972;28;20994;-74
2022/12/15 13:27:53;;;;;;;47.73;26.97;;;;;;;;;;5003746;28;20584;-75
2022/12/15 13:30:19;;;;;;;43.80;26.13;;;;;;;;;;5007301;28;20461;-76
2022/12/15 13:32:46;;;;;;;41.10;23.87;;;;;;;;;;4997174;28;20442;-76
2022/12/15 13:35:12;;;;;;;44.63;25.33;;;;;;;;;;4997527;28;20692;-76
2022/12/15 13:38:07;;;;;;;38.10;24.00;;;;;;;;;;4999686;28;20213;-76
2022/12/15 13:40:36;;;;;;;42.57;24.97;;;;;;;;;;5002309;28;20203;-76
2022/12/15 13:43:02;;;;;;;43.90;25.90;;;;;;;;;;5015723;28;20241;-76
2022/12/15 13:45:58;;;;;;;44.43;26.10;;;;;;;;;;5003999;28;20265;-76
2022/12/15 13:48:37;;;;;;;42.53;25.50;;;;;;;;;;4984451;28;20287;-76
2022/12/15 13:51:06;;;;;;;43.53;25.00;;;;;;;;;;5003671;28;20230;-76
2022/12/15 13:53:38;;;;;;;48.13;26.40;;;;;;;;;;5006348;28;20191;-76
2022/12/15 13:56:10;;;;;;;45.57;27.47;;;;;;;;;;5004069;28;20754;-77
2022/12/15 13:58:47;;;;;;;45.70;27.20;;;;;;;;;;4995651;28;20410;-76
2022/12/15 14:01:27;;;;;;;46.87;26.23;;;;;;;;;;5008519;28;20553;-75
2022/12/15 14:04:04;;;;;;;45.20;26.00;;;;;;;;;;5001179;28;20229;-75
2022/12/15 14:06:35;;;;;;;42.50;25.03;;;;;;;;;;4998062;28;20199;-76
2022/12/15 14:09:02;;;;;;;42.70;25.97;;;;;;;;;;5009165;28;20179;-75
2022/12/15 14:11:30;;;;;;;42.97;25.53;;;;;;;;;;5005295;28;20236;-75
2022/12/15 14:13:59;;;;;;;44.27;26.03;;;;;;;;;;4997696;28;20309;-76
2022/12/15 14:16:26;;;;;;;47.73;27.47;;;;;;;;;;5019814;28;20190;-75
2022/12/15 14:19:11;;;;;;;49.60;28.30;;;;;;;;;;5012633;28;20796;-75
2022/12/15 14:21:37;;;;;;;46.77;27.13;;;;;;;;;;4998656;28;20202;-75
2022/12/15 14:24:15;;;;;;;45.53;26.40;;;;;;;;;;5009274;28;20182;-76
2022/12/15 14:26:41;;;;;;;46.77;25.60;;;;;;;;;;4997541;28;20207;-75
2022/12/15 14:29:09;;;;;;;45.10;25.60;;;;;;;;;;4986830;28;20215;-75
2022/12/15 14:31:36;;;;;;;43.90;25.13;;;;;;;;;;4991678;28;20220;-77
2022/12/15 14:34:05;;;;;;;42.40;25.63;;;;;;;;;;5002386;28;20243;-76
2022/12/15 14:36:32;;;;;;;42.57;25.63;;;;;;;;;;4993463;28;20641;-75
2022/12/15 14:39:05;;;;;;;47.67;26.47;;;;;;;;;;5021714;28;20194;-76
2022/12/15 14:41:36;;;;;;;41.20;23.53;;;;;;;;;;5002431;28;20690;-75
2022/12/15 14:44:07;;;;;;;37.20;22.67;;;;;;;;;;5001604;28;20278;-76
2022/12/15 14:46:34;;;;;;;39.43;23.87;;;;;;;;;;5007452;28;20438;-76
2022/12/15 14:49:02;;;;;;;37.67;23.70;;;;;;;;;;5001294;28;20488;-76
2022/12/15 14:51:29;;;;;;;37.97;22.50;;;;;;;;;;5010554;28;21017;-76
2022/12/15 14:53:55;;;;;;;37.20;21.13;;;;;;;;;;5005246;28;20481;-76
2022/12/15 14:56:31;;;;;;;33.80;20.43;;;;;;;;;;5015062;28;20438;-76
2022/12/15 14:59:17;;;;;;;36.73;22.20;;;;;;;;;;5007094;28;20187;-76
2022/12/15 15:01:54;;;;;;;40.20;23.03;;;;;;;;;;5013413;28;20190;-76
2022/12/15 15:04:29;;;;;;;38.57;23.73;;;;;;;;;;5005507;28;20190;-76
2022/12/15 15:06:56;;;;;;;35.57;21.87;;;;;;;;;;5007438;28;20238;-76
2022/12/15 15:09:24;;;;;;;34.77;21.57;;;;;;;;;;4994760;28;20180;-76
2022/12/15 15:11:52;;;;;;;41.73;23.10;;;;;;;;;;5001496;28;20186;-77
2022/12/15 15:14:29;;;;;;;35.23;21.60;;;;;;;;;;5000458;28;20203;-76
2022/12/15 15:17:15;;;;;;;34.80;21.13;;;;;;;;;;5007618;28;20191;-77
2022/12/15 15:19:59;;;;;;;34.97;20.40;;;;;;;;;;5011123;28;20203;-76
2022/12/15 15:22:25;;;;;;;35.83;20.77;;;;;;;;;;5004314;28;20188;-75
2022/12/15 15:24:51;;;;;;;39.30;22.80;;;;;;;;;;5009192;28;20277;-76
2022/12/15 15:27:25;;;;;;;37.00;22.83;;;;;;;;;;5002335;28;20183;-75
2022/12/15 15:29:52;;;;;;;37.53;22.60;;;;;;;;;;5014379;28;20617;-75
2022/12/15 15:32:19;;;;;;;38.53;23.80;;;;;;;;;;5014734;28;20183;-76
2022/12/15 15:34:46;;;;;;;39.58;24.13;;;;;;;;;;5006936;28;20919;-76
2022/12/15 15:37:15;;;;;;;37.83;23.30;;;;;;;;;;5002215;28;20182;-76
2022/12/15 15:39:41;;;;;;;43.50;26.20;;;;;;;;;;5008698;28;20218;-76
2022/12/15 15:42:14;;;;;;;39.97;23.70;;;;;;;;;;4991337;28;20194;-77
2022/12/15 15:44:40;;;;;;;38.22;23.50;;;;;;;;;;5004535;28;20747;-76
2022/12/15 15:47:12;;;;;;;37.90;24.13;;;;;;;;;;5006748;28;20460;-75
2022/12/15 15:49:38;;;;;;;36.53;24.25;;;;;;;;;;5008054;28;20456;-76
2022/12/15 15:52:04;;;;;;;35.28;22.95;;;;;;;;;;5020190;28;20433;-76
2022/12/15 15:54:34;;;;;;;35.83;22.77;;;;;;;;;;5005017;28;20222;-76
2022/12/15 15:57:01;;;;;;;36.20;22.23;;;;;;;;;;5005623;28;20175;-76
2022/12/15 15:59:27;;;;;;;35.55;24.65;;;;;;;;;;5012262;28;20417;-76
2022/12/15 16:01:55;;;;;;;33.50;20.90;;;;;;;;;;5006261;28;20188;-76
2022/12/15 16:04:21;;;;;;;38.97;22.90;;;;;;;;;;5008221;28;20443;-76
2022/12/15 16:06:48;;;;;;;42.15;25.30;;;;;;;;;;4991194;28;20509;-76
2022/12/15 16:09:15;;;;;;;42.27;25.17;;;;;;;;;;4996621;28;20416;-75
2022/12/15 16:11:42;;;;;;;46.75;32.45;;;;;;;;;;5009528;28;20436;-76
2022/12/15 16:14:15;;;;;;;40.55;28.20;;;;;;;;;;5006846;28;20457;-76
2022/12/15 16:16:42;;;;;;;37.63;23.60;;;;;;;;;;5013194;28;20193;-76
2022/12/15 16:19:08;;;;;;;36.97;22.80;;;;;;;;;;5005110;28;21007;-76
2022/12/15 16:21:35;;;;;;;39.22;27.23;;;;;;;;;;5006511;28;20475;-76
2022/12/15 16:24:09;;;;;;;38.35;28.02;;;;;;;;;;4994501;28;21050;-76
2022/12/15 16:26:37;;;;;;;43.25;31.30;;;;;;;;;;5011839;28;20893;-76
2022/12/15 16:29:11;;;;;;;48.77;30.17;;;;;;;;;;5003984;28;20187;-75
2022/12/15 16:31:38;;;;;;;47.92;31.85;;;;;;;;;;5002368;28;20446;-76
2022/12/15 16:34:05;;;;;;;42.40;25.47;;;;;;;;;;5005306;28;20253;-74
2022/12/15 16:36:31;;;;;;;38.85;27.15;;;;;;;;;;5010882;28;20450;-76
2022/12/15 16:38:58;;;;;;;38.00;23.70;;;;;;;;;;4999224;28;20218;-75
2022/12/15 16:41:26;;;;;;;39.87;24.70;;;;;;;;;;5011734;28;20457;-75
2022/12/15 16:43:53;;;;;;;37.70;23.70;;;;;;;;;;4996872;28;20463;-76
2022/12/15 16:46:19;;;;;;;38.22;26.45;;;;;;;;;;5011977;28;20450;-75
2022/12/15 16:48:45;;;;;;;41.40;26.17;;;;;;;;;;5005107;28;20198;-74
2022/12/15 16:51:23;;;;;;;48.83;29.50;;;;;;;;;;5003641;28;20576;-74